Terminal Aerodrome Forecast
Issued by NWS

Home | Current Version | Previous Version | Text Only | Print | Product List | Glossary On
Versions: 1 2 3 4 5 6 7 8 9 10 11 12 13 14 15 16 17 18 19 20 21 22 23 24 25
000
FTUS46 KLOX 260200 AAA
TAFLAX
TAF AMD
KLAX 260255Z 2603/2706 26006KT P6SM BKN150
     FM260500 VRB03KT P6SM FEW010 BKN150
     FM260700 VRB03KT 6SM BR OVC012
     FM261600 VRB03KT P6SM BKN015
     FM261800 25010KT P6SM SCT017 BKN150
     FM270400 25006KT P6SM BKN012=

USA.gov is the U.S. government's official web portal to all federal, state and local government web resources and services.